Terminal Aerodrome Forecast
Issued by NWS

Home | Current Version | Previous Version | Text Only | Print | Product List | Glossary On
Versions: 1 2 3 4 5 6 7 8 9 10 11 12 13 14
000
FTUS43 KMQT 262334
TAFIWD
TAF
KIWD 262334Z 2700/2724 02010G18KT 1SM -FZDZ BR OVC006
     FM270300 01009KT 2SM -FZDZ BR OVC003
     FM270900 01008KT 3SM -FZRA OVC003
     FM271200 35008KT 2SM -SN OVC003
     FM271500 34009KT 2SM -SN OVC008
     FM271800 30009KT P6SM OVC008
     FM272200 28009KT P6SM OVC010=

USA.gov is the U.S. government's official web portal to all federal, state and local government web resources and services.